createdAt,value
2017-06-18T00:01:33.302Z,17.00
2017-06-18T00:04:00.802Z,16.90
2017-06-18T00:06:28.423Z,16.90
2017-06-18T00:08:55.923Z,16.90
2017-06-18T00:11:23.398Z,16.80
2017-06-18T00:13:51.668Z,16.80
2017-06-18T00:16:19.909Z,16.80
2017-06-18T00:18:47.393Z,16.80
2017-06-18T00:21:14.892Z,16.80
2017-06-18T00:23:42.385Z,16.80
2017-06-18T00:26:09.889Z,16.70
2017-06-18T00:28:38.133Z,16.80
2017-06-18T00:31:05.626Z,16.70
2017-06-18T00:33:33.134Z,16.70
2017-06-18T00:36:00.604Z,16.70
2017-06-18T00:38:28.073Z,16.70
2017-06-18T00:40:55.592Z,16.70
2017-06-18T00:43:23.100Z,16.60
2017-06-18T00:45:50.572Z,16.60
2017-06-18T00:48:18.840Z,16.60
2017-06-18T00:50:47.087Z,16.50
2017-06-18T00:53:14.559Z,16.50
2017-06-18T00:55:42.053Z,16.50
2017-06-18T00:58:09.541Z,16.40
2017-06-18T01:00:37.050Z,16.50
2017-06-18T01:03:05.296Z,16.50
2017-06-18T01:05:32.781Z,16.50
2017-06-18T01:08:01.044Z,16.50
2017-06-18T01:10:28.544Z,16.50
2017-06-18T01:12:56.042Z,16.40
2017-06-18T01:15:23.540Z,16.40
2017-06-18T01:17:51.795Z,16.50
2017-06-18T01:20:19.280Z,16.40
2017-06-18T01:22:47.524Z,16.40
2017-06-18T01:25:15.034Z,16.40
2017-06-18T01:27:42.501Z,16.40
2017-06-18T01:30:09.998Z,16.40
2017-06-18T01:32:37.476Z,16.40
2017-06-18T01:35:05.728Z,16.40
2017-06-18T01:37:33.229Z,16.40
2017-06-18T01:40:00.706Z,16.40
2017-06-18T01:42:28.209Z,16.40
2017-06-18T01:44:55.695Z,16.40
2017-06-18T01:47:23.197Z,16.40
2017-06-18T01:49:50.676Z,16.40
2017-06-18T01:52:18.160Z,16.30
2017-06-18T01:54:46.445Z,16.20
2017-06-18T01:57:14.698Z,16.30
2017-06-18T01:59:42.217Z,16.30
2017-06-18T02:02:09.704Z,16.30
2017-06-18T02:04:37.189Z,16.30
2017-06-18T02:07:05.458Z,16.30
2017-06-18T02:09:32.937Z,16.30
2017-06-18T02:12:00.439Z,16.40
2017-06-18T02:14:27.933Z,16.40
2017-06-18T02:16:56.172Z,16.30
2017-06-18T02:19:23.681Z,16.30
2017-06-18T02:21:51.917Z,16.40
2017-06-18T02:24:19.426Z,16.30
2017-06-18T02:26:46.915Z,16.30
2017-06-18T02:29:14.486Z,16.40
2017-06-18T02:31:42.012Z,16.30
2017-06-18T02:34:09.496Z,16.20
2017-06-18T02:36:37.021Z,16.20
2017-06-18T02:39:04.518Z,16.20
2017-06-18T02:41:32.008Z,16.10
2017-06-18T02:44:00.276Z,16.10
2017-06-18T02:46:27.749Z,16.10
2017-06-18T02:48:56.027Z,16.10
2017-06-18T02:51:24.279Z,16.20
2017-06-18T02:53:51.836Z,16.20
2017-06-18T02:56:19.322Z,16.20
2017-06-18T02:58:47.584Z,16.20
2017-06-18T03:01:15.096Z,16.30
2017-06-18T03:03:42.577Z,16.30
2017-06-18T03:06:10.072Z,16.20
2017-06-18T03:08:38.330Z,16.20
2017-06-18T03:11:05.820Z,16.20
2017-06-18T03:13:33.311Z,16.10
2017-06-18T03:16:00.832Z,16.10
2017-06-18T03:18:29.085Z,16.10
2017-06-18T03:21:02.385Z,16.10
2017-06-18T03:23:36.283Z,16.20
2017-06-18T03:26:03.764Z,16.20
2017-06-18T03:28:32.074Z,16.10
2017-06-18T03:30:59.545Z,16.10
2017-06-18T03:33:27.038Z,16.10
2017-06-18T03:35:54.521Z,16.10
2017-06-18T03:38:22.776Z,16.00
2017-06-18T03:40:50.275Z,16.00
2017-06-18T03:43:17.752Z,16.10
2017-06-18T03:45:45.248Z,16.10
2017-06-18T03:48:12.721Z,16.00
2017-06-18T03:50:40.966Z,16.10
2017-06-18T03:53:08.460Z,16.10
2017-06-18T03:55:36.728Z,16.10
2017-06-18T03:58:04.991Z,16.10
2017-06-18T04:00:32.489Z,16.10
2017-06-18T04:02:59.970Z,16.10
2017-06-18T04:05:27.464Z,16.20
2017-06-18T04:07:54.939Z,16.20
2017-06-18T04:10:23.206Z,16.10
2017-06-18T04:12:50.670Z,16.10
2017-06-18T04:15:18.928Z,16.20
2017-06-18T04:17:46.402Z,16.10
2017-06-18T04:20:14.657Z,16.20
2017-06-18T04:22:42.149Z,16.20
2017-06-18T04:25:10.401Z,16.30
2017-06-18T04:27:37.897Z,16.30
2017-06-18T04:30:05.372Z,16.30
2017-06-18T04:32:32.852Z,16.30
2017-06-18T04:35:00.338Z,16.30
2017-06-18T04:37:27.821Z,16.40
2017-06-18T04:39:55.332Z,16.40
2017-06-18T04:42:22.811Z,16.40
2017-06-18T04:44:50.296Z,16.50
2017-06-18T04:47:17.818Z,16.50
2017-06-18T04:49:45.339Z,16.50
2017-06-18T04:52:12.855Z,16.50
2017-06-18T04:54:40.369Z,16.70
2017-06-18T04:57:07.846Z,16.70
2017-06-18T04:59:35.337Z,16.70
2017-06-18T05:02:03.584Z,16.80
2017-06-18T05:04:31.076Z,16.80
2017-06-18T05:06:59.318Z,17.00
2017-06-18T05:09:26.848Z,16.90
2017-06-18T05:11:54.352Z,17.00
2017-06-18T05:14:21.841Z,17.10
2017-06-18T05:16:49.360Z,17.30
2017-06-18T05:19:16.884Z,17.30
2017-06-18T05:21:44.359Z,17.50
2017-06-18T05:24:11.878Z,17.50
2017-06-18T05:26:39.357Z,17.50
2017-06-18T05:29:06.846Z,17.60
2017-06-18T05:31:34.316Z,17.70
2017-06-18T05:34:01.791Z,17.70
2017-06-18T05:36:30.045Z,18.00
2017-06-18T05:38:57.537Z,18.00
2017-06-18T05:41:25.018Z,17.90
2017-06-18T05:43:52.487Z,17.90
2017-06-18T05:46:20.042Z,17.90
2017-06-18T05:48:47.513Z,17.80
2017-06-18T05:51:14.999Z,17.70
2017-06-18T05:53:42.473Z,17.70
2017-06-18T05:56:10.712Z,17.90
2017-06-18T05:58:38.205Z,17.90
2017-06-18T06:01:06.526Z,18.10
2017-06-18T06:03:34.028Z,18.10
2017-06-18T06:06:01.523Z,18.20
2017-06-18T06:08:29.001Z,18.30
2017-06-18T06:10:58.760Z,18.50
2017-06-18T06:13:26.372Z,18.60
2017-06-18T06:15:53.839Z,18.80
2017-06-18T06:18:21.352Z,19.00
2017-06-18T06:20:49.601Z,19.30
2017-06-18T06:23:17.105Z,19.30
2017-06-18T06:25:44.577Z,19.40
2017-06-18T06:28:12.086Z,19.60
2017-06-18T06:30:39.560Z,19.70
2017-06-18T06:33:07.827Z,20.10
2017-06-18T06:35:35.292Z,20.10
2017-06-18T06:38:03.557Z,19.80
2017-06-18T06:40:31.052Z,19.80
2017-06-18T06:42:58.533Z,19.90
2017-06-18T06:45:26.025Z,19.90
2017-06-18T06:47:53.503Z,20.00
2017-06-18T06:50:21.771Z,19.60
2017-06-18T06:52:50.015Z,20.10
2017-06-18T06:55:17.486Z,20.00
2017-06-18T06:57:45.017Z,20.70
2017-06-18T07:00:12.486Z,21.50
2017-06-18T07:02:39.983Z,22.10
2017-06-18T07:05:07.457Z,22.40
2017-06-18T07:07:34.956Z,22.00
2017-06-18T07:10:02.511Z,21.10
2017-06-18T07:12:29.976Z,21.00
2017-06-18T07:14:57.485Z,21.10
2017-06-18T07:17:25.760Z,21.00
2017-06-18T07:19:54.011Z,22.10
2017-06-18T07:22:21.516Z,22.00
2017-06-18T07:24:48.990Z,22.80
2017-06-18T07:27:16.485Z,23.60
2017-06-18T07:29:43.981Z,24.20
2017-06-18T07:32:11.456Z,23.60
2017-06-18T07:34:38.948Z,24.40
2017-06-18T07:37:06.427Z,25.20
2017-06-18T07:39:33.894Z,24.80
2017-06-18T07:42:02.161Z,23.40
2017-06-18T07:44:29.635Z,23.40
2017-06-18T07:46:57.889Z,23.30
2017-06-18T07:49:25.403Z,23.20
2017-06-18T07:51:52.934Z,23.10
2017-06-18T07:54:21.201Z,22.60
2017-06-18T07:56:48.709Z,22.50
2017-06-18T07:59:16.186Z,22.60
2017-06-18T08:01:43.664Z,23.10
2017-06-18T08:04:11.161Z,24.70
2017-06-18T08:06:38.732Z,26.20
2017-06-18T08:09:06.234Z,25.30
2017-06-18T08:11:33.698Z,25.40
2017-06-18T08:14:01.178Z,26.10
2017-06-18T08:16:29.425Z,28.40
2017-06-18T08:18:56.904Z,28.20
2017-06-18T08:21:25.167Z,27.60
2017-06-18T08:23:52.635Z,27.60
2017-06-18T08:26:20.906Z,27.60
2017-06-18T08:28:48.378Z,27.50
2017-06-18T08:31:16.644Z,29.40
2017-06-18T08:33:44.903Z,29.30
2017-06-18T08:36:12.394Z,29.30
2017-06-18T08:38:39.903Z,30.30
2017-06-18T08:41:07.388Z,30.00
2017-06-18T08:43:34.875Z,29.30
2017-06-18T08:46:02.356Z,28.70
2017-06-18T08:48:29.845Z,28.70
2017-06-18T08:50:57.344Z,28.10
2017-06-18T08:53:24.847Z,29.20
2017-06-18T08:55:52.349Z,29.70
2017-06-18T08:58:20.596Z,30.60
2017-06-18T09:00:48.156Z,30.50
2017-06-18T09:03:15.633Z,30.80
2017-06-18T09:05:43.130Z,31.50
2017-06-18T09:08:10.696Z,32.20
2017-06-18T09:10:38.170Z,32.60
2017-06-18T09:13:05.666Z,33.40
2017-06-18T09:15:33.137Z,33.10
2017-06-18T09:18:01.409Z,32.50
2017-06-18T09:20:29.645Z,32.90
2017-06-18T09:22:57.182Z,32.90
2017-06-18T09:25:24.664Z,32.90
2017-06-18T09:27:52.200Z,33.10
2017-06-18T09:30:19.684Z,33.40
2017-06-18T09:32:47.189Z,32.90
2017-06-18T09:35:14.684Z,33.10
2017-06-18T09:37:42.165Z,33.60
2017-06-18T09:40:09.650Z,34.60
2017-06-18T09:42:37.920Z,32.10
2017-06-18T09:45:06.180Z,32.80
2017-06-18T09:47:33.661Z,32.80
2017-06-18T09:50:01.148Z,32.60
2017-06-18T09:52:28.648Z,33.40
2017-06-18T09:54:56.128Z,34.50
2017-06-18T09:57:59.138Z,34.50
2017-06-18T10:00:27.617Z,33.50
2017-06-18T10:02:55.874Z,35.30
2017-06-18T10:05:23.349Z,35.20
2017-06-18T10:07:51.593Z,35.30
2017-06-18T10:10:19.084Z,35.30
2017-06-18T10:12:47.345Z,36.40
2017-06-18T10:15:14.841Z,36.40
2017-06-18T10:17:42.320Z,36.80
2017-06-18T10:20:10.760Z,36.60
2017-06-18T10:22:39.031Z,37.30
2017-06-18T10:25:07.290Z,37.10
2017-06-18T10:27:34.760Z,37.10
2017-06-18T10:30:03.023Z,34.40
2017-06-18T10:32:30.497Z,34.30
2017-06-18T10:34:58.740Z,31.50
2017-06-18T10:37:26.244Z,31.40
2017-06-18T10:39:53.717Z,31.30
2017-06-18T10:42:21.210Z,30.90
2017-06-18T10:44:48.684Z,31.90
2017-06-18T10:47:16.152Z,33.20
2017-06-18T10:49:43.643Z,34.30
2017-06-18T10:52:11.109Z,35.70
2017-06-18T10:54:38.585Z,34.50
2017-06-18T10:57:06.076Z,33.30
2017-06-18T10:59:33.548Z,33.70
2017-06-18T11:02:01.809Z,32.90
2017-06-18T11:04:30.076Z,30.80
2017-06-18T11:06:58.340Z,30.40
2017-06-18T11:09:25.833Z,30.40
2017-06-18T11:11:54.176Z,30.30
2017-06-18T11:14:21.664Z,30.20
2017-06-18T11:16:49.141Z,29.10
2017-06-18T11:19:17.413Z,28.80
2017-06-18T11:21:45.672Z,28.80
2017-06-18T11:24:13.158Z,28.80
2017-06-18T11:26:40.656Z,29.60
2017-06-18T11:29:08.128Z,29.80
2017-06-18T11:31:35.650Z,30.30
2017-06-18T11:34:03.144Z,30.30
2017-06-18T11:36:30.615Z,28.80
2017-06-18T11:38:58.180Z,28.20
2017-06-18T11:41:25.653Z,27.50
2017-06-18T11:43:53.908Z,27.20
2017-06-18T11:46:21.495Z,27.20
2017-06-18T11:48:49.774Z,26.60
2017-06-18T11:51:18.014Z,25.90
2017-06-18T11:53:45.505Z,25.80
2017-06-18T11:56:13.064Z,26.20
2017-06-18T11:58:40.586Z,26.50
2017-06-18T12:01:08.077Z,27.10
2017-06-18T12:03:35.578Z,26.70
2017-06-18T12:06:03.048Z,27.20
2017-06-18T12:08:31.288Z,26.00
2017-06-18T12:10:58.812Z,26.00
2017-06-18T12:13:26.293Z,25.10
2017-06-18T12:15:54.326Z,25.60
2017-06-18T12:18:21.812Z,26.50
2017-06-18T12:20:49.317Z,26.90
2017-06-18T12:23:17.576Z,27.50
2017-06-18T12:25:45.079Z,27.40
2017-06-18T12:28:12.591Z,27.60
2017-06-18T12:30:40.067Z,27.00
2017-06-18T12:33:07.573Z,25.80
2017-06-18T12:35:35.045Z,26.40
2017-06-18T12:38:02.549Z,26.30
2017-06-18T12:40:30.056Z,26.10
2017-06-18T12:42:57.597Z,25.30
2017-06-18T12:45:25.068Z,24.90
2017-06-18T12:47:52.557Z,24.80
2017-06-18T12:50:20.821Z,25.40
2017-06-18T12:52:48.325Z,25.20
2017-06-18T12:55:16.731Z,25.50
2017-06-18T12:57:44.233Z,25.50
2017-06-18T13:00:11.717Z,25.60
2017-06-18T13:02:39.965Z,26.40
2017-06-18T13:05:07.517Z,26.40
2017-06-18T13:07:35.001Z,26.50
2017-06-18T13:10:02.517Z,26.80
2017-06-18T13:12:30.038Z,26.90
2017-06-18T13:14:58.309Z,26.80
2017-06-18T13:17:26.540Z,27.10
2017-06-18T13:19:54.013Z,27.10
2017-06-18T13:22:21.511Z,27.10
2017-06-18T13:24:48.990Z,26.90
2017-06-18T13:27:16.480Z,25.90
2017-06-18T13:29:43.969Z,25.60
2017-06-18T13:32:12.218Z,26.00
2017-06-18T13:34:39.705Z,26.00
2017-06-18T13:37:07.998Z,27.10
2017-06-18T13:39:35.510Z,27.10
2017-06-18T13:42:02.988Z,26.70
2017-06-18T13:44:30.476Z,27.00
2017-06-18T13:46:57.965Z,26.90
2017-06-18T13:49:25.513Z,26.30
2017-06-18T13:51:53.025Z,26.00
2017-06-18T13:54:21.268Z,26.10
2017-06-18T13:56:48.781Z,26.10
2017-06-18T13:59:17.014Z,26.60
2017-06-18T14:01:44.521Z,26.60
2017-06-18T14:04:12.032Z,26.80
2017-06-18T14:06:39.503Z,27.10
2017-06-18T14:09:07.754Z,27.10
2017-06-18T14:11:35.225Z,27.20
2017-06-18T14:14:02.746Z,26.30
2017-06-18T14:16:30.222Z,26.40
2017-06-18T14:18:57.738Z,26.50
2017-06-18T14:21:25.229Z,26.60
2017-06-18T14:23:52.765Z,26.80
2017-06-18T14:26:20.256Z,26.90
2017-06-18T14:28:47.743Z,27.10
2017-06-18T14:31:15.234Z,27.20
2017-06-18T14:33:42.752Z,26.40
2017-06-18T14:36:10.282Z,26.20
2017-06-18T14:38:37.789Z,26.40
2017-06-18T14:41:06.049Z,26.80
2017-06-18T14:43:33.524Z,26.80
2017-06-18T14:46:01.785Z,26.00
2017-06-18T14:48:29.253Z,26.00
2017-06-18T14:50:57.522Z,26.60
2017-06-18T14:53:25.004Z,26.50
2017-06-18T14:55:53.284Z,26.00
2017-06-18T14:58:21.549Z,25.80
2017-06-18T15:00:49.815Z,25.60
2017-06-18T15:03:18.095Z,25.50
2017-06-18T15:05:45.565Z,25.40
2017-06-18T15:08:13.831Z,25.20
2017-06-18T15:10:42.086Z,25.20
2017-06-18T15:13:09.553Z,25.20
2017-06-18T15:15:37.044Z,25.40
2017-06-18T15:18:04.589Z,25.70
2017-06-18T15:20:32.096Z,25.50
2017-06-18T15:22:59.594Z,25.80
2017-06-18T15:25:27.066Z,26.00
2017-06-18T15:27:55.305Z,25.90
2017-06-18T15:30:22.812Z,25.90
2017-06-18T15:32:50.292Z,25.70
2017-06-18T15:35:17.780Z,25.60
2017-06-18T15:37:45.258Z,25.90
2017-06-18T15:40:13.497Z,26.10
2017-06-18T15:42:40.993Z,26.10
2017-06-18T15:45:09.245Z,25.90
2017-06-18T15:47:36.747Z,25.90
2017-06-18T15:50:04.288Z,25.60
2017-06-18T15:52:31.798Z,25.50
2017-06-18T15:54:59.264Z,25.20
2017-06-18T15:57:26.739Z,25.50
2017-06-18T15:59:54.243Z,25.40
2017-06-18T16:02:21.726Z,25.50
2017-06-18T16:04:49.515Z,25.70
2017-06-18T16:07:17.004Z,25.90
2017-06-18T16:09:44.541Z,25.80
2017-06-18T16:12:12.013Z,25.20
2017-06-18T16:14:40.253Z,25.40
2017-06-18T16:17:07.783Z,25.40
2017-06-18T16:19:35.277Z,25.50
2017-06-18T16:22:02.785Z,25.30
2017-06-18T16:24:30.293Z,25.30
2017-06-18T16:26:57.792Z,25.00
2017-06-18T16:29:25.288Z,24.80
2017-06-18T16:31:52.830Z,24.60
2017-06-18T16:34:20.309Z,24.70
2017-06-18T16:36:47.817Z,24.70
2017-06-18T16:39:16.053Z,24.80
2017-06-18T16:41:43.533Z,24.80
2017-06-18T16:44:11.029Z,24.50
2017-06-18T16:46:38.516Z,24.40
2017-06-18T16:49:06.684Z,24.50
2017-06-18T16:51:34.156Z,24.50
2017-06-18T16:54:01.680Z,24.70
2017-06-18T16:56:29.165Z,24.70
2017-06-18T16:58:56.662Z,24.50
2017-06-18T17:01:24.913Z,24.40
2017-06-18T17:03:52.413Z,24.40
2017-06-18T17:06:20.649Z,24.30
2017-06-18T17:08:48.132Z,24.30
2017-06-18T17:11:16.381Z,24.20
2017-06-18T17:13:46.346Z,24.10
2017-06-18T17:16:13.843Z,24.20
2017-06-18T17:18:41.329Z,24.10
2017-06-18T17:21:14.420Z,24.10
2017-06-18T17:23:41.924Z,24.20
2017-06-18T17:26:09.433Z,24.10
2017-06-18T17:28:36.913Z,24.10
2017-06-18T17:31:05.175Z,24.00
2017-06-18T17:33:33.425Z,23.90
2017-06-18T17:36:00.922Z,23.90
2017-06-18T17:38:29.215Z,23.80
2017-06-18T17:40:56.794Z,23.80
2017-06-18T17:43:24.305Z,23.70
2017-06-18T17:45:51.794Z,23.70
2017-06-18T17:48:19.285Z,23.70
2017-06-18T17:50:46.766Z,23.70
2017-06-18T17:53:14.264Z,23.50
2017-06-18T17:55:41.742Z,23.40
2017-06-18T17:58:09.237Z,23.40
2017-06-18T18:00:36.709Z,23.40
2017-06-18T18:03:04.200Z,23.40
2017-06-18T18:05:31.700Z,23.40
2017-06-18T18:07:59.216Z,23.30
2017-06-18T18:10:26.732Z,23.30
2017-06-18T18:12:54.218Z,23.20
2017-06-18T18:15:22.529Z,23.10
2017-06-18T18:17:50.049Z,23.10
2017-06-18T18:20:18.377Z,23.10
2017-06-18T18:22:45.862Z,23.10
2017-06-18T18:25:13.388Z,23.00
2017-06-18T18:27:40.877Z,22.90
2017-06-18T18:30:08.348Z,22.90
2017-06-18T18:32:35.847Z,22.80
2017-06-18T18:35:03.329Z,22.70
2017-06-18T18:37:30.825Z,22.60
2017-06-18T18:39:58.305Z,22.60
2017-06-18T18:42:26.548Z,22.40
2017-06-18T18:44:54.059Z,22.40
2017-06-18T18:47:21.693Z,22.30
2017-06-18T18:49:49.936Z,22.20
2017-06-18T18:52:17.442Z,22.20
2017-06-18T18:54:44.957Z,22.10
2017-06-18T18:57:12.464Z,22.10
2017-06-18T18:59:39.944Z,21.90
2017-06-18T19:02:07.443Z,21.80
2017-06-18T19:04:34.933Z,21.80
2017-06-18T19:07:02.417Z,21.70
2017-06-18T19:09:29.945Z,21.60
2017-06-18T19:11:58.201Z,21.50
2017-06-18T19:14:25.713Z,21.40
2017-06-18T19:16:53.258Z,21.40
2017-06-18T19:19:20.745Z,21.40
2017-06-18T19:21:48.257Z,21.30
2017-06-18T19:24:16.529Z,21.10
2017-06-18T19:26:45.106Z,21.00
2017-06-18T19:29:13.384Z,20.90
2017-06-18T19:31:41.645Z,20.80
2017-06-18T19:34:09.262Z,20.80
2017-06-18T19:36:36.756Z,20.70
2017-06-18T19:39:04.265Z,20.60
2017-06-18T19:41:31.740Z,20.50
2017-06-18T19:43:59.260Z,20.50
2017-06-18T19:46:27.573Z,20.50
2017-06-18T19:48:55.056Z,20.40
2017-06-18T19:51:22.722Z,20.50
2017-06-18T19:53:50.206Z,20.40
2017-06-18T19:56:18.444Z,20.30
2017-06-18T19:58:47.138Z,20.30
2017-06-18T20:01:14.617Z,20.30
2017-06-18T20:03:42.129Z,20.30
2017-06-18T20:06:09.605Z,20.20
2017-06-18T20:08:37.113Z,20.10
2017-06-18T20:11:05.413Z,20.00
2017-06-18T20:13:32.912Z,19.90
2017-06-18T20:16:00.403Z,19.90
2017-06-18T20:18:27.998Z,19.80
2017-06-18T20:20:55.514Z,19.80
2017-06-18T20:23:23.770Z,19.80
2017-06-18T20:25:51.282Z,19.70
2017-06-18T20:28:18.778Z,19.70
2017-06-18T20:30:46.535Z,19.70
2017-06-18T20:33:14.016Z,19.70
2017-06-18T20:35:41.522Z,19.70
2017-06-18T20:38:09.064Z,19.70
2017-06-18T20:40:36.576Z,19.60
2017-06-18T20:43:04.078Z,19.60
2017-06-18T20:45:31.581Z,19.50
2017-06-18T20:47:59.077Z,19.40
2017-06-18T20:50:26.576Z,19.40
2017-06-18T20:52:54.064Z,19.40
2017-06-18T20:55:21.564Z,19.40
2017-06-18T20:57:49.808Z,19.40
2017-06-18T21:00:17.304Z,19.40
2017-06-18T21:02:45.561Z,19.40
2017-06-18T21:05:13.825Z,19.40
2017-06-18T21:07:41.326Z,19.30
2017-06-18T21:10:08.825Z,19.40
2017-06-18T21:12:36.293Z,19.30
2017-06-18T21:15:03.837Z,19.30
2017-06-18T21:17:31.362Z,19.30
2017-06-18T21:19:58.941Z,19.30
2017-06-18T21:22:26.429Z,19.20
2017-06-18T21:24:53.909Z,19.30
2017-06-18T21:27:22.165Z,19.20
2017-06-18T21:29:50.086Z,19.20
2017-06-18T21:32:17.589Z,19.20
2017-06-18T21:34:45.069Z,19.10
2017-06-18T21:37:12.680Z,19.10
2017-06-18T21:39:40.160Z,19.10
2017-06-18T21:42:07.701Z,19.00
2017-06-18T21:44:35.187Z,19.10
2017-06-18T21:47:02.675Z,19.00
2017-06-18T21:49:30.944Z,18.90
2017-06-18T21:51:59.189Z,18.90
2017-06-18T21:54:26.675Z,18.90
2017-06-18T21:56:54.938Z,18.90
2017-06-18T21:59:22.408Z,18.80
2017-06-18T22:01:50.681Z,18.70
2017-06-18T22:04:18.160Z,18.80
2017-06-18T22:06:45.632Z,18.70
2017-06-18T22:09:13.136Z,18.60
2017-06-18T22:11:40.632Z,18.60
2017-06-18T22:14:08.910Z,18.50
2017-06-18T22:16:37.151Z,18.40
2017-06-18T22:19:04.651Z,18.40
2017-06-18T22:21:32.153Z,18.40
2017-06-18T22:23:59.632Z,18.40
2017-06-18T22:26:27.121Z,18.30
2017-06-18T22:28:55.361Z,18.30
2017-06-18T22:31:22.884Z,18.30
2017-06-18T22:33:50.358Z,18.20
2017-06-18T22:36:17.861Z,18.20
2017-06-18T22:38:46.107Z,18.20
2017-06-18T22:41:13.606Z,18.20
2017-06-18T22:43:41.844Z,18.10
2017-06-18T22:46:09.315Z,18.10
2017-06-18T22:48:36.846Z,18.10
2017-06-18T22:51:04.371Z,18.00
2017-06-18T22:53:31.873Z,18.00
2017-06-18T22:55:59.358Z,17.90
2017-06-18T22:58:27.625Z,17.80
2017-06-18T23:00:55.100Z,17.80
2017-06-18T23:03:23.399Z,17.80
2017-06-18T23:05:50.897Z,17.70
2017-06-18T23:08:18.377Z,17.70
2017-06-18T23:10:45.862Z,17.60
2017-06-18T23:13:14.122Z,17.50
2017-06-18T23:15:42.365Z,17.40
2017-06-18T23:18:09.853Z,17.30
2017-06-18T23:20:37.349Z,17.30
2017-06-18T23:23:04.838Z,17.20
2017-06-18T23:25:32.341Z,17.00
2017-06-18T23:28:00.582Z,16.80
2017-06-18T23:30:28.080Z,16.70
2017-06-18T23:32:55.572Z,16.70
2017-06-18T23:35:23.066Z,16.50
2017-06-18T23:37:50.565Z,16.40
2017-06-18T23:40:18.049Z,16.30
2017-06-18T23:42:45.555Z,16.20
2017-06-18T23:45:13.793Z,16.00
2017-06-18T23:47:41.288Z,16.00
2017-06-18T23:50:09.556Z,15.90
2017-06-18T23:52:37.033Z,15.90
2017-06-18T23:55:05.296Z,15.80
2017-06-18T23:57:33.580Z,15.70
